Time;durP1;ratioP1;P1;durP2;ratioP2;P2;SDS_P1;SDS_P2;PMS_P1;PMS_P2;Temp;Humidity;BMP_temperature;BMP_pressure;BME280_temperature;BME280_humidity;BME280_pressure;Samples;Min_cycle;Max_cycle;Signal;HPM_P1;HPM_P2
2022/03/09 00:00:18;;;;;;;27.77;11.93;;;;;;;0.10;74.83;101765.13;4993368;28;20547;-51
2022/03/09 00:02:45;;;;;;;22.88;12.02;;;;;;;0.09;75.00;101758.28;5000297;28;20049;-49
2022/03/09 00:05:12;;;;;;;26.08;11.73;;;;;;;0.08;75.51;101765.06;5001018;28;20843;-50
2022/03/09 00:07:39;;;;;;;23.00;11.27;;;;;;;0.07;75.82;101755.66;5003339;28;20053;-50
2022/03/09 00:10:06;;;;;;;23.05;11.02;;;;;;;0.08;75.94;101764.19;5002581;28;20056;-52
2022/03/09 00:12:35;;;;;;;30.17;13.30;;;;;;;0.06;76.10;101759.00;5002155;28;20674;-50
2022/03/09 00:15:01;;;;;;;27.08;11.88;;;;;;;0.04;76.44;101749.53;4998637;28;20050;-51
2022/03/09 00:17:28;;;;;;;28.60;12.38;;;;;;;0.03;77.19;101755.44;4993113;28;20046;-53
2022/03/09 00:19:54;;;;;;;26.02;12.18;;;;;;;-0.01;77.41;101752.69;5001685;28;20064;-49
2022/03/09 00:22:21;;;;;;;25.85;12.38;;;;;;;-0.01;77.42;101749.28;5000286;28;20050;-50
2022/03/09 00:24:47;;;;;;;28.38;11.70;;;;;;;-0.02;77.34;101743.31;4995595;28;20061;-48
2022/03/09 00:27:14;;;;;;;29.38;13.20;;;;;;;-0.03;77.92;101749.19;4998475;28;20498;-49
2022/03/09 00:29:41;;;;;;;28.25;11.85;;;;;;;-0.03;77.72;101749.19;5001158;28;20042;-51
2022/03/09 00:32:08;;;;;;;25.75;12.88;;;;;;;-0.05;78.12;101750.78;4998452;28;20058;-49
2022/03/09 00:34:35;;;;;;;24.70;11.05;;;;;;;-0.07;78.58;101752.38;5002589;28;20054;-51
2022/03/09 00:37:01;;;;;;;22.88;9.80;;;;;;;-0.09;78.37;101748.88;5002316;28;20049;-49
2022/03/09 00:39:28;;;;;;;25.42;13.75;;;;;;;-0.12;78.28;101746.19;5000471;28;20045;-49
2022/03/09 00:41:54;;;;;;;27.52;11.95;;;;;;;-0.11;78.48;101750.50;5001923;28;20062;-49
2022/03/09 00:44:21;;;;;;;26.58;11.95;;;;;;;-0.14;78.57;101750.34;4996764;28;20181;-50
2022/03/09 00:46:49;;;;;;;25.77;11.82;;;;;;;-0.14;78.79;101760.53;4998355;28;20053;-48
2022/03/09 00:49:16;;;;;;;23.08;11.65;;;;;;;-0.14;79.35;101755.44;5003026;28;20403;-53
2022/03/09 00:51:42;;;;;;;25.77;12.13;;;;;;;-0.15;79.34;101758.78;4998875;28;20046;-48
2022/03/09 00:54:09;;;;;;;25.33;12.68;;;;;;;-0.15;79.55;101763.00;5000342;28;20695;-51
2022/03/09 00:56:35;;;;;;;27.88;11.60;;;;;;;-0.15;79.58;101766.41;5000703;28;20473;-51
2022/03/09 00:59:02;;;;;;;22.10;11.43;;;;;;;-0.15;79.35;101771.53;4994317;28;20061;-51
2022/03/09 01:01:28;;;;;;;32.20;13.68;;;;;;;-0.17;79.93;101768.00;5000470;28;20054;-49
2022/03/09 01:03:56;;;;;;;28.83;13.38;;;;;;;-0.18;80.49;101768.81;4999671;28;20068;-51
2022/03/09 01:06:22;;;;;;;28.63;13.90;;;;;;;-0.16;80.28;101771.44;5001289;28;20053;-52
2022/03/09 01:08:49;;;;;;;24.13;12.85;;;;;;;-0.17;80.14;101775.66;5001264;28;20042;-48
2022/03/09 01:11:15;;;;;;;26.67;12.48;;;;;;;-0.19;80.14;101772.16;5001786;28;20071;-50
2022/03/09 01:13:42;;;;;;;28.00;12.45;;;;;;;-0.20;80.11;101770.41;5000542;28;20064;-51
2022/03/09 01:16:08;;;;;;;30.38;13.32;;;;;;;-0.19;80.67;101772.16;5000602;28;20058;-50
2022/03/09 01:18:35;;;;;;;25.40;12.18;;;;;;;-0.21;80.76;101766.09;5001793;28;20057;-48
2022/03/09 01:21:03;;;;;;;26.63;12.25;;;;;;;-0.21;80.88;101763.56;4998749;28;20061;-51
2022/03/09 01:23:29;;;;;;;23.48;11.20;;;;;;;-0.22;80.56;101772.00;4997661;28;20158;-49
2022/03/09 01:25:55;;;;;;;26.17;12.95;;;;;;;-0.23;80.54;101765.16;4993153;28;20812;-50
2022/03/09 01:28:22;;;;;;;26.65;12.40;;;;;;;-0.24;80.85;101773.59;4994235;28;20054;-50
2022/03/09 01:30:48;;;;;;;30.88;14.63;;;;;;;-0.25;81.02;101771.84;4993248;28;20054;-50
2022/03/09 01:33:15;;;;;;;24.55;12.38;;;;;;;-0.27;81.17;101778.53;5000847;28;20060;-48
2022/03/09 01:35:41;;;;;;;26.90;12.48;;;;;;;-0.28;81.23;101769.13;5001141;28;20054;-49
2022/03/09 01:38:09;;;;;;;23.95;13.48;;;;;;;-0.29;81.36;101777.59;5002155;28;20058;-53
2022/03/09 01:40:35;;;;;;;28.95;13.05;;;;;;;-0.30;81.52;101772.41;4999840;28;20064;-48
2022/03/09 01:43:02;;;;;;;28.52;13.35;;;;;;;-0.34;81.34;101761.19;4996062;28;20046;-51
2022/03/09 01:45:28;;;;;;;30.85;13.02;;;;;;;-0.35;81.58;101764.53;4993782;28;20056;-52
2022/03/09 01:47:55;;;;;;;28.17;13.48;;;;;;;-0.37;81.53;101750.84;4999026;28;20638;-53
2022/03/09 01:50:21;;;;;;;24.63;11.57;;;;;;;-0.38;81.69;101765.25;5000180;28;20054;-51
2022/03/09 01:52:48;;;;;;;29.25;12.73;;;;;;;-0.41;82.03;101757.44;5001083;28;20062;-51
2022/03/09 01:55:16;;;;;;;26.80;13.13;;;;;;;-0.42;82.14;101763.34;4997926;28;20065;-49
2022/03/09 01:57:42;;;;;;;26.65;11.43;;;;;;;-0.44;82.13;101764.94;4995352;28;20083;-49
2022/03/09 02:00:11;;;;;;;30.10;13.35;;;;;;;-0.47;82.61;101758.81;4998169;28;20053;-53
2022/03/09 02:02:37;;;;;;;33.17;13.90;;;;;;;-0.47;82.49;101758.81;4999852;28;20683;-52
2022/03/09 02:05:05;;;;;;;26.42;12.02;;;;;;;-0.50;82.62;101754.41;4998454;28;20054;-53
2022/03/09 02:10:19;;;;;;;29.15;12.65;;;;;;;-0.53;83.01;101751.69;4993461;28;20748;-52
2022/03/09 02:12:46;;;;;;;23.90;12.70;;;;;;;-0.54;83.48;101751.59;4997871;28;20081;-51
2022/03/09 02:15:12;;;;;;;26.67;11.90;;;;;;;-0.55;83.09;101749.84;5000288;28;20061;-49
2022/03/09 02:17:39;;;;;;;27.88;12.10;;;;;;;-0.59;83.31;101753.03;4999075;28;20045;-50
2022/03/09 02:20:06;;;;;;;25.20;11.82;;;;;;;-0.61;83.32;101754.63;4998676;28;20054;-52
2022/03/09 02:22:36;;;;;;;23.90;12.40;;;;;;;-0.65;83.45;101754.47;4995661;28;20054;-53
2022/03/09 02:25:04;;;;;;;27.80;13.43;;;;;;;-0.65;84.56;101759.56;4998527;28;20050;-52
2022/03/09 02:27:31;;;;;;;31.67;14.55;;;;;;;-0.66;84.26;101770.53;5000607;28;20054;-51
2022/03/09 02:29:57;;;;;;;27.17;13.23;;;;;;;-0.66;84.21;101768.00;5000135;28;20057;-51
2022/03/09 02:32:24;;;;;;;26.73;12.38;;;;;;;-0.68;84.84;101771.25;4994749;28;20730;-51
2022/03/09 02:34:51;;;;;;;26.70;12.15;;;;;;;-0.68;84.83;101769.59;4996875;28;20054;-54
2022/03/09 02:37:18;;;;;;;30.02;13.60;;;;;;;-0.69;84.84;101769.50;4998616;28;20085;-48
2022/03/09 02:39:46;;;;;;;29.20;14.30;;;;;;;-0.68;85.12;101774.66;5001712;28;20058;-51
2022/03/09 02:42:13;;;;;;;27.52;12.93;;;;;;;-0.68;85.23;101772.13;5004971;28;20046;-52
2022/03/09 02:44:39;;;;;;;29.00;11.85;;;;;;;-0.67;85.73;101781.53;5003224;28;20060;-50
2022/03/09 02:47:07;;;;;;;26.50;12.93;;;;;;;-0.64;86.11;101780.81;5003875;28;20057;-49
2022/03/09 02:49:34;;;;;;;31.73;13.40;;;;;;;-0.65;85.66;101790.13;5002581;28;20060;-49
2022/03/09 02:52:00;;;;;;;28.98;13.07;;;;;;;-0.65;86.53;101790.13;5003963;28;20054;-53
2022/03/09 02:54:27;;;;;;;28.45;12.93;;;;;;;-0.64;85.92;101794.41;4997362;28;20049;-49
2022/03/09 02:56:55;;;;;;;29.45;14.63;;;;;;;-0.63;85.79;101788.53;4998300;28;20057;-50
2022/03/09 02:59:22;;;;;;;24.05;12.85;;;;;;;-0.64;85.70;101791.88;4999790;28;20047;-50
2022/03/09 03:01:48;;;;;;;29.27;14.00;;;;;;;-0.64;86.08;101791.88;5003528;28;20053;-50
2022/03/09 03:04:15;;;;;;;25.85;11.70;;;;;;;-0.65;86.16;101791.78;5002011;28;20054;-51
2022/03/09 03:06:41;;;;;;;27.67;13.75;;;;;;;-0.65;86.00;101789.25;4998651;28;20054;-53
2022/03/09 03:09:08;;;;;;;31.00;12.70;;;;;;;-0.66;85.87;101792.59;4999929;28;20059;-53
2022/03/09 03:11:34;;;;;;;26.73;12.85;;;;;;;-0.68;86.21;101795.03;5004133;28;20060;-52
2022/03/09 03:14:02;;;;;;;31.77;14.95;;;;;;;-0.67;86.14;101794.25;5002800;28;20061;-49
2022/03/09 03:16:28;;;;;;;23.65;12.23;;;;;;;-0.67;85.94;101786.59;4999697;28;20061;-51
2022/03/09 03:18:55;;;;;;;28.65;11.77;;;;;;;-0.66;86.25;101788.38;5003210;28;20058;-52
2022/03/09 03:21:21;;;;;;;26.55;12.35;;;;;;;-0.65;85.95;101794.34;5001301;28;20045;-49
2022/03/09 03:23:48;;;;;;;29.05;13.38;;;;;;;-0.66;85.96;101792.59;5000401;28;20058;-49
2022/03/09 03:26:14;;;;;;;31.23;13.05;;;;;;;-0.68;85.70;101800.13;5000062;28;20480;-50
2022/03/09 03:28:40;;;;;;;29.25;12.30;;;;;;;-0.68;85.84;101802.69;4996669;28;20046;-51
2022/03/09 03:31:08;;;;;;;27.73;11.93;;;;;;;-0.69;85.98;101802.59;5003426;28;20064;-50
2022/03/09 03:33:35;;;;;;;29.35;13.20;;;;;;;-0.71;86.54;101804.19;5002489;28;20057;-52
2022/03/09 03:36:01;;;;;;;28.25;12.77;;;;;;;-0.71;86.35;101811.84;5002756;28;20052;-49
2022/03/09 03:38:28;;;;;;;28.45;12.02;;;;;;;-0.74;85.99;101815.09;5002200;28;20056;-52
2022/03/09 03:40:54;;;;;;;26.33;12.18;;;;;;;-0.75;86.65;101813.34;4997401;28;20054;-51
2022/03/09 03:43:21;;;;;;;28.70;12.07;;;;;;;-0.76;86.52;101820.88;5002383;28;20467;-53
2022/03/09 03:45:47;;;;;;;28.45;12.73;;;;;;;-0.79;86.36;101819.06;4997604;28;20054;-51
2022/03/09 03:48:15;;;;;;;23.73;11.73;;;;;;;-0.79;86.30;101826.69;5000966;28;20080;-48
2022/03/09 03:50:41;;;;;;;23.77;11.32;;;;;;;-0.81;86.48;101823.19;4996539;28;20069;-50
2022/03/09 03:53:08;;;;;;;25.17;10.98;;;;;;;-0.82;86.21;101826.53;4994595;28;20454;-51
2022/03/09 03:55:34;;;;;;;26.90;11.60;;;;;;;-0.85;86.69;101821.28;4999438;28;20050;-51
2022/03/09 03:58:00;;;;;;;27.55;13.05;;;;;;;-0.87;86.67;101827.94;5000718;28;20056;-51
2022/03/09 04:00:27;;;;;;;26.50;12.93;;;;;;;-0.88;86.50;101836.38;4996977;28;20057;-51
2022/03/09 04:02:53;;;;;;;24.40;12.07;;;;;;;-0.89;86.40;101832.06;5002436;28;20057;-52
2022/03/09 04:05:21;;;;;;;24.60;12.05;;;;;;;-0.89;86.65;101838.84;5001977;28;20049;-52
2022/03/09 04:07:48;;;;;;;26.75;11.93;;;;;;;-0.90;86.30;101832.88;5004140;28;20053;-52
2022/03/09 04:10:15;;;;;;;26.85;12.60;;;;;;;-0.90;86.20;101832.00;4998996;28;20805;-50
2022/03/09 04:12:41;;;;;;;29.50;12.27;;;;;;;-0.93;86.80;101827.59;4997437;28;21719;-52
2022/03/09 04:15:08;;;;;;;28.83;13.02;;;;;;;-0.96;86.11;101828.31;4993828;28;20046;-49
2022/03/09 04:17:45;;;;;;;27.08;12.50;;;;;;;-0.99;86.17;101837.47;4998783;28;20510;-51
2022/03/09 04:20:13;;;;;;;25.73;11.32;;;;;;;-1.01;86.51;101833.94;4999140;28;20050;-52
2022/03/09 04:22:41;;;;;;;26.42;11.55;;;;;;;-1.03;86.42;101830.44;4999046;28;20045;-53
2022/03/09 04:25:09;;;;;;;25.25;12.30;;;;;;;-1.06;86.39;101827.69;4998835;28;20057;-54
2022/03/09 04:27:36;;;;;;;30.38;12.95;;;;;;;-1.11;86.63;101831.66;4999001;28;20669;-52
2022/03/09 04:30:03;;;;;;;32.45;13.05;;;;;;;-1.15;86.43;101824.63;5002401;28;20057;-51
2022/03/09 04:32:30;;;;;;;29.23;12.30;;;;;;;-1.18;86.33;101824.47;5001682;28;20050;-52
2022/03/09 04:34:56;;;;;;;26.15;12.48;;;;;;;-1.20;86.59;101826.94;5001739;28;20058;-53
2022/03/09 04:37:23;;;;;;;28.75;13.10;;;;;;;-1.22;86.24;101827.63;5001024;28;20049;-53
2022/03/09 04:39:50;;;;;;;30.50;12.48;;;;;;;-1.25;86.41;101830.00;5002573;28;20041;-51
2022/03/09 04:42:17;;;;;;;25.42;12.38;;;;;;;-1.29;86.59;101834.03;4996407;28;20050;-54
2022/03/09 04:44:44;;;;;;;29.35;13.38;;;;;;;-1.32;86.87;101832.19;4994442;28;20061;-52
2022/03/09 04:47:10;;;;;;;30.48;12.45;;;;;;;-1.35;86.90;101832.03;4997536;28;20076;-52
2022/03/09 04:49:37;;;;;;;29.60;13.10;;;;;;;-1.37;87.18;101827.66;4995145;28;20546;-51
2022/03/09 04:52:04;;;;;;;27.70;13.27;;;;;;;-1.38;87.01;101831.84;5002511;28;20058;-54
2022/03/09 04:54:30;;;;;;;30.15;12.77;;;;;;;-1.42;87.41;101829.06;5000630;28;20049;-51
2022/03/09 04:56:58;;;;;;;26.48;12.32;;;;;;;-1.44;87.55;101830.63;4999247;28;20416;-50
2022/03/09 04:59:24;;;;;;;26.20;11.45;;;;;;;-1.47;87.26;101835.53;4999919;28;20467;-51
2022/03/09 05:01:51;;;;;;;27.77;12.77;;;;;;;-1.49;87.40;101835.47;4993154;28;20056;-52
2022/03/09 05:04:17;;;;;;;28.60;13.23;;;;;;;-1.51;87.57;101834.50;4999140;28;20049;-54
2022/03/09 05:06:44;;;;;;;31.40;12.80;;;;;;;-1.52;87.79;101832.75;4998071;28;20503;-53
2022/03/09 05:09:10;;;;;;;31.13;13.30;;;;;;;-1.51;87.76;101844.66;5001629;28;20061;-51
2022/03/09 05:11:37;;;;;;;30.58;13.95;;;;;;;-1.50;87.69;101846.41;4992698;28;20092;-51
2022/03/09 05:14:05;;;;;;;27.85;12.23;;;;;;;-1.49;87.77;101839.66;4995786;28;20054;-52
2022/03/09 05:16:31;;;;;;;28.75;12.80;;;;;;;-1.48;87.72;101844.84;4995232;28;20418;-50
2022/03/09 05:18:58;;;;;;;28.20;13.15;;;;;;;-1.46;87.67;101837.28;4995177;28;20045;-50
2022/03/09 05:21:24;;;;;;;36.17;13.10;;;;;;;-1.46;88.22;101839.84;4996604;28;20057;-53
2022/03/09 05:23:51;;;;;;;31.50;13.98;;;;;;;-1.47;87.85;101831.34;4995608;28;20736;-53
2022/03/09 05:26:17;;;;;;;28.88;13.48;;;;;;;-1.45;88.14;101836.50;4998509;28;20061;-53
2022/03/09 05:28:43;;;;;;;25.92;12.45;;;;;;;-1.44;88.14;101840.81;5000611;28;20049;-51
2022/03/09 05:31:11;;;;;;;30.42;13.52;;;;;;;-1.45;87.75;101845.00;4995829;28;20052;-53
2022/03/09 05:33:38;;;;;;;31.48;13.48;;;;;;;-1.43;87.79;101837.47;4998499;28;20415;-52
2022/03/09 05:36:05;;;;;;;29.30;12.88;;;;;;;-1.41;88.08;101844.41;4992844;28;20415;-51
2022/03/09 05:38:31;;;;;;;31.25;13.98;;;;;;;-1.42;87.90;101835.00;4994898;28;20054;-50
2022/03/09 05:40:58;;;;;;;31.85;13.35;;;;;;;-1.38;87.64;101844.56;4997534;28;20546;-51
2022/03/09 05:43:24;;;;;;;29.73;12.88;;;;;;;-1.36;88.02;101845.53;4997008;28;20487;-54
2022/03/09 05:45:50;;;;;;;26.65;13.63;;;;;;;-1.33;87.59;101845.72;4997793;28;20058;-51
2022/03/09 05:48:18;;;;;;;26.50;12.00;;;;;;;-1.30;87.86;101856.06;4990963;28;20066;-50
2022/03/09 05:50:45;;;;;;;27.75;11.45;;;;;;;-1.27;88.02;101856.22;4997569;28;20041;-53
2022/03/09 05:53:11;;;;;;;29.08;12.43;;;;;;;-1.23;87.57;101856.41;4995343;28;20499;-53
2022/03/09 05:55:38;;;;;;;27.75;13.25;;;;;;;-1.20;87.93;101867.63;4995819;28;20081;-53
2022/03/09 05:58:04;;;;;;;28.77;12.10;;;;;;;-1.16;88.06;101868.69;4994348;28;20981;-50
2022/03/09 06:00:31;;;;;;;25.45;11.13;;;;;;;-1.13;88.04;101869.72;4997227;28;20078;-51
2022/03/09 06:02:57;;;;;;;29.70;12.88;;;;;;;-1.09;88.12;101871.66;4996753;28;20053;-50
2022/03/09 06:05:25;;;;;;;30.45;13.55;;;;;;;-1.04;87.79;101864.28;4995619;28;20049;-51
2022/03/09 06:07:52;;;;;;;23.90;11.38;;;;;;;-0.99;87.50;101873.09;4995532;28;20058;-51
2022/03/09 06:10:19;;;;;;;26.90;11.52;;;;;;;-0.93;87.78;101873.44;4996810;28;20438;-50
2022/03/09 06:12:45;;;;;;;29.23;12.77;;;;;;;-0.86;87.90;101870.44;4995577;28;20057;-50
2022/03/09 06:15:12;;;;;;;28.50;12.00;;;;;;;-0.78;88.21;101869.19;4996147;28;20050;-50
2022/03/09 06:17:45;;;;;;;28.13;12.05;;;;;;;-0.68;88.16;101871.44;4993224;28;20383;-50
2022/03/09 06:20:13;;;;;;;27.73;12.60;;;;;;;-0.54;87.82;101868.75;4991851;28;20598;-50
2022/03/09 06:22:41;;;;;;;28.65;11.55;;;;;;;-0.38;88.03;101873.91;4987047;28;20176;-50
2022/03/09 06:25:08;;;;;;;26.05;11.95;;;;;;;-0.24;88.05;101869.56;4987822;28;20697;-51
2022/03/09 06:27:40;;;;;;;24.85;11.65;;;;;;;-0.09;87.72;101881.44;4987152;28;20061;-43
2022/03/09 06:30:08;;;;;;;24.90;12.05;;;;;;;0.12;87.40;101879.16;4989750;28;20154;-47
2022/03/09 06:32:34;;;;;;;25.98;11.70;;;;;;;0.31;87.17;101883.53;4992308;28;20515;-51
2022/03/09 06:35:02;;;;;;;24.85;10.90;;;;;;;0.52;87.42;101879.53;4989942;28;20057;-54
2022/03/09 06:37:28;;;;;;;24.92;10.88;;;;;;;0.76;86.61;101879.00;4998095;28;20419;-52
2022/03/09 06:39:56;;;;;;;21.73;10.63;;;;;;;1.00;86.49;101879.31;4996367;28;20606;-50
2022/03/09 06:42:23;;;;;;;28.83;11.80;;;;;;;1.23;85.78;101884.75;4994267;28;20294;-48
2022/03/09 06:44:49;;;;;;;25.25;11.75;;;;;;;1.47;85.38;101884.13;4995531;28;20053;-51
2022/03/09 06:47:16;;;;;;;30.70;11.55;;;;;;;1.72;84.59;101892.16;4994690;28;20061;-49
2022/03/09 06:49:42;;;;;;;25.10;12.20;;;;;;;1.98;83.50;101890.75;4995081;28;20050;-49
2022/03/09 06:52:09;;;;;;;27.08;12.70;;;;;;;2.22;82.88;101891.00;4997298;28;20045;-49
2022/03/09 06:54:36;;;;;;;22.98;12.30;;;;;;;2.45;81.54;101887.72;4992188;28;20069;-48
2022/03/09 06:57:04;;;;;;;25.45;12.02;;;;;;;2.70;79.86;101896.47;4994302;28;20340;-52
2022/03/09 06:59:31;;;;;;;25.05;11.15;;;;;;;2.95;79.26;101898.34;4995987;28;20060;-47
2022/03/09 07:01:57;;;;;;;23.30;11.20;;;;;;;3.19;78.37;101898.50;4992201;28;20058;-49
2022/03/09 07:04:24;;;;;;;26.20;11.00;;;;;;;3.41;77.45;101898.53;4992499;28;20102;-49
2022/03/09 07:06:50;;;;;;;20.98;10.43;;;;;;;3.63;76.06;101903.66;4992663;28;20585;-50
2022/03/09 07:09:17;;;;;;;17.45;9.52;;;;;;;3.85;75.94;101895.09;4997147;28;20054;-52
2022/03/09 07:11:44;;;;;;;22.75;10.15;;;;;;;4.08;75.30;101898.50;4995573;28;20046;-49
2022/03/09 07:14:12;;;;;;;22.67;10.43;;;;;;;4.29;74.29;101898.44;4996702;28;20216;-50
2022/03/09 07:16:39;;;;;;;20.67;10.65;;;;;;;4.47;73.52;101904.19;4996536;28;20439;-48
2022/03/09 07:19:05;;;;;;;20.58;10.63;;;;;;;4.66;72.39;101901.44;4994253;28;20058;-48
2022/03/09 07:21:32;;;;;;;22.08;11.68;;;;;;;4.81;71.76;101898.53;4992485;28;20053;-50
2022/03/09 07:23:59;;;;;;;21.15;11.18;;;;;;;4.94;70.50;101903.25;4990511;28;20061;-49
2022/03/09 07:26:25;;;;;;;22.27;11.13;;;;;;;5.04;69.77;101900.16;4996300;28;20487;-52
2022/03/09 07:28:52;;;;;;;27.13;11.65;;;;;;;5.17;68.67;101906.56;4998241;28;20058;-48
2022/03/09 07:31:20;;;;;;;19.33;9.60;;;;;;;5.28;67.95;101909.53;4997455;28;20415;-48
2022/03/09 07:33:46;;;;;;;20.27;11.02;;;;;;;5.39;68.37;101903.00;4997519;28;20080;-50
2022/03/09 07:36:12;;;;;;;21.92;11.52;;;;;;;5.57;67.88;101906.16;4997406;28;20046;-51
2022/03/09 07:38:39;;;;;;;19.17;9.85;;;;;;;5.71;67.38;101907.44;4997061;28;20061;-48
2022/03/09 07:41:05;;;;;;;19.75;10.65;;;;;;;5.89;66.79;101906.25;4999132;28;20046;-51
2022/03/09 07:43:32;;;;;;;17.58;8.98;;;;;;;6.07;66.67;101906.81;4997614;28;20098;-49
2022/03/09 07:45:58;;;;;;;18.15;9.35;;;;;;;6.26;66.34;101908.22;4997931;28;20423;-49
2022/03/09 07:48:28;;;;;;;16.83;8.65;;;;;;;6.48;65.95;101912.25;4997606;28;20063;-53
2022/03/09 07:50:54;;;;;;;19.20;9.60;;;;;;;6.74;65.11;101918.09;4998076;28;21153;-52
2022/03/09 07:53:20;;;;;;;17.67;8.98;;;;;;;6.97;64.60;101923.03;4999233;28;20058;-50
2022/03/09 07:55:47;;;;;;;16.65;10.27;;;;;;;7.19;64.14;101924.41;4997993;28;20439;-48
2022/03/09 07:58:13;;;;;;;18.02;9.75;;;;;;;7.40;63.61;101918.91;5001179;28;20049;-49
2022/03/09 08:00:40;;;;;;;15.40;8.77;;;;;;;7.63;62.61;101922.00;4997518;28;20050;-48
2022/03/09 08:03:06;;;;;;;16.02;8.73;;;;;;;7.84;61.59;101913.91;4996225;28;20046;-49
2022/03/09 08:05:34;;;;;;;16.92;8.35;;;;;;;8.09;61.04;101918.72;4999821;28;20514;-50
2022/03/09 08:08:00;;;;;;;13.90;7.97;;;;;;;8.30;60.81;101917.41;4995698;28;20045;-49
2022/03/09 08:10:27;;;;;;;13.98;7.28;;;;;;;8.60;60.46;101912.00;4996143;28;20053;-50
2022/03/09 08:12:53;;;;;;;13.55;8.18;;;;;;;8.84;59.94;101910.75;4997925;28;20166;-48
2022/03/09 08:15:20;;;;;;;11.88;7.25;;;;;;;9.09;58.97;101909.44;4999734;28;20249;-49
2022/03/09 08:17:46;;;;;;;9.10;6.05;;;;;;;9.43;57.33;101916.03;4996842;28;20060;-51
2022/03/09 08:20:13;;;;;;;9.65;5.80;;;;;;;9.75;56.50;101908.72;4994394;28;20902;-50
2022/03/09 08:22:42;;;;;;;10.35;5.65;;;;;;;10.04;55.11;101906.53;4996408;28;20466;-49
2022/03/09 08:25:09;;;;;;;8.30;4.82;;;;;;;10.38;54.52;101912.13;4996434;28;20053;-47
2022/03/09 08:27:35;;;;;;;9.05;4.93;;;;;;;10.74;53.45;101915.13;4998157;28;20085;-52
2022/03/09 08:30:02;;;;;;;10.30;5.00;;;;;;;11.10;52.51;101910.25;4998594;28;20073;-49
2022/03/09 08:32:28;;;;;;;6.20;4.13;;;;;;;11.32;51.49;101907.81;5000269;28;20069;-50
2022/03/09 08:34:55;;;;;;;9.98;4.88;;;;;;;11.58;50.45;101904.56;4999382;28;20062;-47
2022/03/09 08:37:21;;;;;;;9.23;5.07;;;;;;;11.84;49.90;101908.19;4995454;28;20061;-48
2022/03/09 08:39:49;;;;;;;12.15;5.00;;;;;;;12.13;48.62;101904.88;4998258;28;20049;-47
2022/03/09 08:42:16;;;;;;;9.27;4.53;;;;;;;12.35;48.13;101906.69;4998532;28;20068;-46
2022/03/09 08:44:42;;;;;;;8.75;4.75;;;;;;;12.58;46.98;101899.81;4999328;28;20049;-49
2022/03/09 08:47:09;;;;;;;7.35;4.00;;;;;;;12.89;45.74;101899.84;4998207;28;20062;-50
2022/03/09 08:49:39;;;;;;;7.35;4.07;;;;;;;13.11;44.84;101906.81;4996983;28;20058;-49
2022/03/09 08:52:06;;;;;;;7.57;4.03;;;;;;;13.29;44.04;101907.69;4992249;28;20050;-48
2022/03/09 08:54:32;;;;;;;8.05;4.13;;;;;;;13.38;43.42;101910.28;4998509;28;20057;-49
2022/03/09 08:57:00;;;;;;;7.28;3.65;;;;;;;13.46;41.89;101913.75;4996908;28;20495;-49
2022/03/09 08:59:27;;;;;;;6.63;3.30;;;;;;;13.53;40.92;101918.09;4996163;28;20049;-48
2022/03/09 09:01:53;;;;;;;8.30;3.47;;;;;;;13.51;41.09;101917.22;4999303;28;20061;-50
2022/03/09 09:04:20;;;;;;;7.45;2.90;;;;;;;13.51;41.10;101912.88;4997328;28;20056;-50
2022/03/09 09:06:46;;;;;;;7.93;3.00;;;;;;;13.51;41.33;101922.41;4998240;28;20115;-51
2022/03/09 09:09:14;;;;;;;5.90;3.08;;;;;;;13.54;41.26;101920.72;4997932;28;20179;-50
2022/03/09 09:11:41;;;;;;;6.60;3.42;;;;;;;13.59;40.30;101915.50;4993970;28;20049;-48
2022/03/09 09:14:09;;;;;;;4.43;2.10;;;;;;;13.68;39.57;101918.06;4993204;28;20050;-49
2022/03/09 09:16:35;;;;;;;4.25;3.10;;;;;;;13.68;39.21;101925.88;4995509;28;20053;-49
2022/03/09 09:19:02;;;;;;;6.57;2.80;;;;;;;13.65;39.36;101928.50;4997054;28;20053;-49
2022/03/09 09:21:29;;;;;;;3.97;2.10;;;;;;;13.61;39.11;101934.59;4996045;28;20062;-51
2022/03/09 09:23:55;;;;;;;8.57;2.25;;;;;;;13.64;39.35;101928.50;4996115;28;20054;-52
2022/03/09 09:26:22;;;;;;;4.60;2.20;;;;;;;13.62;38.75;101946.75;4994457;28;20058;-51
2022/03/09 09:28:48;;;;;;;4.47;2.53;;;;;;;13.64;39.49;101939.78;4996470;28;20053;-48
2022/03/09 09:31:16;;;;;;;5.00;2.03;;;;;;;13.65;38.97;101938.91;4993853;28;20053;-48
2022/03/09 09:33:42;;;;;;;4.43;1.90;;;;;;;13.65;38.37;101938.91;4997038;28;20061;-49
2022/03/09 09:36:10;;;;;;;2.60;1.40;;;;;;;13.74;38.19;101940.63;4993599;28;20058;-49
2022/03/09 09:38:37;;;;;;;4.32;2.08;;;;;;;13.82;37.71;101934.53;4994288;28;20499;-49
2022/03/09 09:41:07;;;;;;;3.67;1.67;;;;;;;13.90;37.74;101932.78;4995372;28;20061;-52
2022/03/09 09:43:34;;;;;;;10.32;4.35;;;;;;;13.97;37.18;101928.41;4996676;28;20056;-49
2022/03/09 09:46:00;;;;;;;4.93;2.63;;;;;;;14.01;37.01;101929.25;4997096;28;20479;-48
2022/03/09 09:48:28;;;;;;;2.90;1.90;;;;;;;14.11;37.21;101936.19;4994968;28;20446;-50
2022/03/09 09:50:55;;;;;;;6.18;2.33;;;;;;;14.16;37.35;101942.25;4992799;28;20049;-51
2022/03/09 09:53:23;;;;;;;3.30;1.48;;;;;;;14.20;36.66;101947.44;4995381;28;20480;-52
2022/03/09 09:55:50;;;;;;;6.40;2.58;;;;;;;14.30;36.95;101937.84;4991244;28;20556;-48
2022/03/09 09:58:19;;;;;;;5.20;2.13;;;;;;;14.33;36.95;101943.03;4992165;28;20050;-48
2022/03/09 10:00:46;;;;;;;4.50;1.80;;;;;;;14.36;36.88;101943.03;4994305;28;20047;-51
2022/03/09 10:03:12;;;;;;;7.18;2.50;;;;;;;14.40;36.88;101936.06;4994578;28;20050;-48
2022/03/09 10:05:40;;;;;;;5.00;2.22;;;;;;;14.42;36.39;101948.25;4999210;28;20069;-49
2022/03/09 10:08:15;;;;;;;8.70;2.47;;;;;;;14.50;35.91;101940.38;4997918;28;20494;-49
2022/03/09 10:10:43;;;;;;;5.10;2.13;;;;;;;14.55;36.27;101948.19;4995327;28;20057;-48
2022/03/09 10:13:11;;;;;;;4.63;2.25;;;;;;;14.60;36.17;101943.84;4995114;28;20049;-48
2022/03/09 10:15:38;;;;;;;6.88;1.55;;;;;;;14.60;35.90;101946.44;4996985;28;20058;-49
2022/03/09 10:18:15;;;;;;;5.63;1.63;;;;;;;14.44;35.98;101946.50;4996456;28;20065;-49
2022/03/09 10:20:43;;;;;;;5.25;1.83;;;;;;;14.45;36.62;101950.84;4996953;28;20057;-49
2022/03/09 10:23:10;;;;;;;4.97;1.98;;;;;;;14.49;36.28;101949.94;4994248;28;20067;-49
2022/03/09 10:25:38;;;;;;;5.60;1.70;;;;;;;14.40;34.91;101960.41;4999079;28;20084;-49
2022/03/09 10:28:07;;;;;;;4.03;1.30;;;;;;;14.03;35.83;101961.41;4998861;28;20054;-48
2022/03/09 10:30:35;;;;;;;4.40;1.63;;;;;;;13.89;36.49;101964.91;4998383;28;20495;-47
2022/03/09 10:33:05;;;;;;;6.10;2.00;;;;;;;13.86;37.06;101964.06;4996129;28;20046;-48
2022/03/09 10:35:45;;;;;;;5.18;1.67;;;;;;;13.90;36.99;101971.00;4996415;28;20898;-48
2022/03/09 10:38:27;;;;;;;4.88;1.92;;;;;;;13.92;36.69;101968.38;4996314;28;20049;-49
2022/03/09 10:40:56;;;;;;;6.05;2.20;;;;;;;13.96;36.64;101967.50;4992727;28;20057;-48
2022/03/09 10:43:28;;;;;;;4.82;2.13;;;;;;;14.02;37.09;101983.13;4995045;28;20056;-50
2022/03/09 10:45:59;;;;;;;4.85;2.15;;;;;;;14.02;36.63;101972.69;4996119;28;20570;-49
2022/03/09 10:48:26;;;;;;;5.10;2.03;;;;;;;13.96;36.76;101970.13;4994681;28;20064;-48
2022/03/09 10:50:55;;;;;;;7.35;2.33;;;;;;;13.80;36.78;101983.19;4992829;28;20058;-50
2022/03/09 10:53:21;;;;;;;6.75;2.15;;;;;;;13.69;36.74;101979.72;4990362;28;20077;-50
2022/03/09 10:55:49;;;;;;;14.98;2.60;;;;;;;13.63;37.13;101981.47;4993077;28;20081;-50
2022/03/09 10:58:17;;;;;;;5.93;1.90;;;;;;;13.59;37.29;101978.00;4992550;28;20050;-48
2022/03/09 11:00:45;;;;;;;5.50;2.15;;;;;;;13.56;37.52;101983.22;4994332;28;20054;-49
2022/03/09 11:03:14;;;;;;;6.82;2.20;;;;;;;13.62;37.45;101977.13;4997109;28;20474;-51
2022/03/09 11:05:55;;;;;;;6.03;2.45;;;;;;;13.63;37.15;101979.75;4993738;28;20054;-49
2022/03/09 11:08:24;;;;;;;4.82;2.28;;;;;;;13.65;37.54;101990.16;4997442;28;20057;-49
2022/03/09 11:10:51;;;;;;;5.82;2.13;;;;;;;13.62;37.50;101988.44;4994922;28;20054;-50
2022/03/09 11:13:18;;;;;;;6.82;3.03;;;;;;;13.61;37.30;101991.91;4995620;28;20054;-47
2022/03/09 11:15:47;;;;;;;10.20;3.03;;;;;;;13.47;37.98;101991.03;4997025;28;20498;-48